LEZG/ZAZ METAR and TAF weather

Enter ICAO airport designator
Station Type Date Time Source
LEZG METAR 2020/01/17 14:30 UTC NOAA

LEZG 171430Z 33013KT 9999 FEW080 13/04 Q1028


Station Type Date Time Source
LEZG Decoded METAR 2020/01/17 14:30 UTC NOAA

Zaragoza / Aeropuerto, Spain (LEZG) 41-40N 001-01W 258M
Jan 17, 2020 - 09:30 AM EST / 2020.01.17 1430 UTC
Wind: from the NNW (330 degrees) at 15 MPH (13 KT):0
Visibility: greater than 7 mile(s):0
Sky conditions: mostly clear
Temperature: 55 F (13 C)
Dew Point: 39 F (4 C)
Relative Humidity: 54%
Pressure (altimeter): 30.36 in. Hg (1028 hPa)
ob: LEZG 171430Z 33013KT 9999 FEW080 13/04 Q1028
cycle: 14

Station Type Date Time Source
LEZG TAF 2020/01/17 14:34 UTC NOAA

TAF
AMD LEZG 171431Z 1714/1812 33015KT 9999 FEW040 TX14/1714Z TN02/1806Z
BECMG 1716/1718 27005KT

Example: see airport list